X-preSS Mulhacen — 9HA3465 — position and weather

sailwx.info

Track history (hours):
 
Tides and Currents Weather Stations Pressure Air Temp Water Temp Dewpoint Dewpoint Depression Visibility Wind Speed Wind Dir Waves Ship Positions

X-preSS Mulhacen

Last reported at 2017-Oct-23 06:00 UTC. Time now 2017-Oct-23 06:25 UTC.
Position N 53°25' W 004°00'.

Length 142 m; draft 7.2 m.

Type: Ship (hazmat cat B). MMSI: 229630000.

Date/timePositionNaut miles runAvg speedWind from/ knotsBaromVisibWave heightAir tempDewpointWater temp
2017-Oct-23 06:00N 53°25' W 004°00'6 1.7
2017-Oct-23 02:21N 53°22' W 004°09'86 3.2
2017-Oct-21 23:54N 52°12' W 005°32'911.6
2017-Oct-21 23:09N 52°04' W 005°36'211.9
2017-Oct-21 23:00N 52°02' W 005°37'3412.3
2017-Oct-21 20:14N 51°31' W 005°58'312.0
2017-Oct-21 20:00N 51°28' W 006°00'26 8.0
2017-Oct-21 16:42N 51°03' W 005°48'3 7.6
2017-Oct-21 16:19N 51°01' W 005°45'3 7.3
2017-Oct-21 15:57N 50°59' W 005°42'3 6.4
2017-Oct-21 15:31N 50°57' W 005°39'3 6.4
2017-Oct-21 15:00N 50°54' W 005°36'7 7.0
2017-Oct-21 14:01N 50°48' W 005°32'611.5
2017-Oct-21 13:31N 50°43' W 005°37'611.3
2017-Oct-21 13:01N 50°38' W 005°41'611.2
2017-Oct-21 12:30N 50°32' W 005°44'610.9
2017-Oct-21 12:00N 50°27' W 005°48'510.8
2017-Oct-21 11:31N 50°22' W 005°51'5 9.9
2017-Oct-21 11:00N 50°17' W 005°52'5 9.7
2017-Oct-21 10:27N 50°12' W 005°53'5 9.6
2017-Oct-21 09:59N 50°08' W 005°54'6 9.3
2017-Oct-21 09:18N 50°01' W 005°55'28 4.3
2017-Oct-21 02:46N 49°54' W 005°13'2 8.2
2017-Oct-21 02:30N 49°54' W 005°09'5 9.0
2017-Oct-21 02:00N 49°54' W 005°02'5 9.7
2017-Oct-21 01:31N 49°55' W 004°55'510.6
2017-Oct-21 01:00N 49°56' W 004°47'611.2
2017-Oct-21 00:30N 49°57' W 004°39'611.5
2017-Oct-21 00:01N 49°59' W 004°30'611.6
2017-Oct-20 23:31N 50°00' W 004°21'611.4
2017-Oct-20 23:01N 50°02' W 004°13'611.4
2017-Oct-20 22:30N 50°03' W 004°04'611.2
2017-Oct-20 22:00N 50°05' W 003°56'510.6
2017-Oct-20 21:30N 50°06' W 003°48'5 9.8
2017-Oct-20 21:00N 50°07' W 003°40'5 9.5
2017-Oct-20 20:31N 50°09' W 003°33'5 9.6
2017-Oct-20 20:01N 50°11' W 003°26'5 9.7
2017-Oct-20 19:30N 50°12' W 003°19'510.0
2017-Oct-20 19:01N 50°14' W 003°12'510.3
2017-Oct-20 18:30N 50°16' W 003°04'510.6
2017-Oct-20 18:01N 50°17' W 002°56'611.1
2017-Oct-20 17:31N 50°19' W 002°48'611.7
2017-Oct-20 17:01N 50°21' W 002°39'612.3
2017-Oct-20 16:31N 50°23' W 002°30'813.0
2017-Oct-20 15:56N 50°26' W 002°19'613.7
2017-Oct-20 15:28N 50°28' W 002°10'714.3
2017-Oct-20 15:00N 50°30' W 001°60'714.6
2017-Oct-20 14:31N 50°34' W 001°50'1414.5
2017-Oct-20 13:30N 50°42' W 001°32'815.1
2017-Oct-20 13:00N 50°46' W 001°21'5 9.4
2017-Oct-20 12:30N 50°50' W 001°19'510.6
2017-Oct-20 12:00N 50°54' W 001°25'2 3.1
2017-Oct-20 11:30N 50°54' W 001°27'0 0.0
2017-Oct-20 10:58N 50°54' W 001°27'0 0.0
2017-Oct-20 10:25N 50°54' W 001°27'0 0.0
2017-Oct-20 09:58N 50°54' W 001°27'0 0.0
2017-Oct-20 09:28N 50°54' W 001°27'0 0.0
2017-Oct-20 08:52N 50°54' W 001°27'0 0.0
2017-Oct-20 08:04N 50°54' W 001°27'0 0.0
2017-Oct-20 07:49N 50°54' W 001°27'0 0.0
2017-Oct-20 07:22N 50°54' W 001°27'0 0.0
2017-Oct-20 06:58N 50°54' W 001°27'0 0.0
2017-Oct-20 06:28N 50°54' W 001°27'0 0.0
2017-Oct-20 05:58N 50°54' W 001°27'0 0.0
2017-Oct-20 05:28N 50°54' W 001°27'0 0.0
2017-Oct-20 04:58N 50°54' W 001°27'0 0.0
2017-Oct-20 04:28N 50°54' W 001°27'0 0.0
2017-Oct-20 03:43N 50°54' W 001°27'0 0.0
2017-Oct-20 03:28N 50°54' W 001°27'0 0.0
2017-Oct-20 02:58N 50°54' W 001°27'0 0.0
2017-Oct-20 02:28N 50°54' W 001°27'0 0.0
2017-Oct-20 01:55N 50°54' W 001°27'0 0.0
2017-Oct-20 01:22N 50°54' W 001°27'0 0.0
2017-Oct-20 00:55N 50°54' W 001°27'0 0.0
2017-Oct-20 00:28N 50°54' W 001°27'0 0.0
2017-Oct-19 23:58N 50°54' W 001°27'0 0.0
2017-Oct-19 23:25N 50°54' W 001°27'0 0.0
2017-Oct-19 22:58N 50°54' W 001°27'0 0.0
2017-Oct-19 22:25N 50°54' W 001°27'0 0.0
2017-Oct-19 21:40N 50°54' W 001°27'0 0.0
2017-Oct-19 21:25N 50°54' W 001°27'0 0.0
2017-Oct-19 20:55N 50°54' W 001°27'0 0.0
2017-Oct-19 19:46N 50°54' W 001°27'0 0.0
2017-Oct-19 19:28N 50°54' W 001°27'0 0.0
2017-Oct-19 18:58N 50°54' W 001°27'0 0.0
2017-Oct-19 18:28N 50°54' W 001°27'0 0.0
2017-Oct-19 17:58N 50°54' W 001°27'0 0.0
2017-Oct-19 17:28N 50°54' W 001°27'0 0.0
2017-Oct-19 16:58N 50°54' W 001°27'0 0.0
2017-Oct-19 16:28N 50°54' W 001°27'0 0.0
2017-Oct-19 15:58N 50°54' W 001°27'0 0.0
2017-Oct-19 15:28N 50°54' W 001°27'0 0.0
2017-Oct-19 14:58N 50°54' W 001°27'0 0.0
2017-Oct-19 14:22N 50°54' W 001°27'0 0.0
2017-Oct-19 13:55N 50°54' W 001°27'0 0.0
2017-Oct-19 13:28N 50°54' W 001°27'0 0.0
2017-Oct-19 12:55N 50°54' W 001°27'0 0.5
2017-Oct-19 12:31N 50°54' W 001°27'3 5.1
2017-Oct-19 12:00N 50°53' W 001°24'5 9.6
2017-Oct-19 11:30N 50°49' W 001°18'4 8.9
2017-Oct-19 11:00N 50°46' W 001°14'4 8.4
2017-Oct-19 10:30N 50°45' W 001°07'510.1
2017-Oct-19 10:00N 50°43' W 001°01'612.2
2017-Oct-19 09:30N 50°37' W 000°58'612.3
2017-Oct-19 09:00N 50°31' W 000°53'611.7
2017-Oct-19 08:30N 50°26' W 000°49'612.1
2017-Oct-19 08:00N 50°21' W 000°45'611.6
2017-Oct-19 07:30N 50°15' W 000°42'611.2
2017-Oct-19 07:00N 50°10' W 000°38'5 9.5
2017-Oct-19 06:30N 50°06' W 000°33'611.6
2017-Oct-19 06:00N 50°01' W 000°29'611.8
2017-Oct-19 05:30N 49°56' W 000°26'612.0
2017-Oct-19 05:00N 49°50' W 000°23'612.4
2017-Oct-19 04:30N 49°45' W 000°17'612.8
2017-Oct-19 04:00N 49°41' W 000°10'612.7
2017-Oct-19 03:30N 49°36' W 000°04'612.0
2017-Oct-19 03:00N 49°31' E 000°01'510.0
2017-Oct-19 02:30N 49°28' E 000°07'2 3.9
2017-Oct-19 02:00N 49°27' E 000°10'0 0.0
2017-Oct-19 01:30N 49°27' E 000°10'0 0.0
2017-Oct-19 01:00N 49°27' E 000°10'0 0.0
2017-Oct-19 00:30N 49°27' E 000°10'0 0.0
2017-Oct-19 00:00N 49°27' E 000°10'0 0.0
2017-Oct-18 23:30N 49°27' E 000°10'0 0.0
2017-Oct-18 23:00N 49°27' E 000°10'0 0.0
2017-Oct-18 22:30N 49°27' E 000°10'0 0.0
2017-Oct-18 22:00N 49°27' E 000°10'0 0.0
2017-Oct-18 21:30N 49°27' E 000°10'0 0.0
2017-Oct-18 21:00N 49°27' E 000°10'0 0.0
2017-Oct-18 20:30N 49°27' E 000°10'0 0.0
2017-Oct-18 20:00N 49°27' E 000°10'0 0.0
2017-Oct-18 19:30N 49°27' E 000°10'0 0.0
2017-Oct-18 19:00N 49°27' E 000°10'1 2.1
2017-Oct-18 18:30N 49°28' E 000°09'510.4
2017-Oct-18 18:01N 49°30' E 000°01'612.0
2017-Oct-18 17:31N 49°31' W 000°08'714.9
2017-Oct-18 17:00N 49°34' W 000°18'816.0
2017-Oct-18 16:30N 49°37' W 000°30'815.5
2017-Oct-18 16:00N 49°39' W 000°41'715.1
2017-Oct-18 15:31N 49°41' W 000°53'714.6
2017-Oct-18 15:00N 49°43' W 001°03'1713.0
2017-Oct-18 13:42N 49°47' W 001°29'4711.5
2017-Oct-18 09:36N 49°50' W 002°42'0 1.5
2017-Oct-18 09:22N 49°50' W 002°42'3 9.4
2017-Oct-18 09:00N 49°49' W 002°47'815.9
2017-Oct-18 08:30N 49°50' W 002°59'816.0
2017-Oct-18 08:00N 49°50' W 003°11'816.0
2017-Oct-18 07:30N 49°50' W 003°24'816.0
2017-Oct-18 07:00N 49°49' W 003°36'815.3
2017-Oct-18 06:30N 49°50' W 003°48'1115.8
2017-Oct-18 05:50N 49°50' W 004°04'915.8
2017-Oct-18 05:15N 49°50' W 004°18'415.6
2017-Oct-18 05:00N 49°50' W 004°25'915.7
2017-Oct-18 04:26N 49°50' W 004°38'715.7
2017-Oct-18 04:00N 49°50' W 004°49'1114.0
2017-Oct-18 03:15N 49°51' W 005°05'313.3
2017-Oct-18 03:00N 49°51' W 005°10'713.8
2017-Oct-18 02:30N 49°52' W 005°21'914.9
2017-Oct-18 01:55N 49°53' W 005°34'1514.4
2017-Oct-18 00:52N 49°55' W 005°58'1813.3
2017-Oct-17 23:33N 50°12' W 006°01'215.2
2017-Oct-17 23:24N 50°15' W 006°01'615.1
2017-Oct-17 23:00N 50°21' W 006°01'1315.4
2017-Oct-17 22:08N 50°34' W 006°01'315.4
2017-Oct-17 21:57N 50°37' W 006°00'1015.4
2017-Oct-17 21:17N 50°47' W 005°60'415.3
2017-Oct-17 21:00N 50°51' W 005°59'815.2
2017-Oct-17 20:29N 50°59' W 005°59'715.2
2017-Oct-17 20:00N 51°06' W 005°58'2214.3
2017-Oct-17 18:27N 51°29' W 005°57'713.5
2017-Oct-17 17:54N 51°36' W 005°57'513.2
2017-Oct-17 17:30N 51°41' W 005°57'713.1
2017-Oct-17 17:00N 51°48' W 005°55'612.8
2017-Oct-17 16:30N 51°54' W 005°53'713.0
2017-Oct-17 16:00N 52°00' W 005°51'612.8
2017-Oct-17 15:30N 52°07' W 005°48'713.4
2017-Oct-17 15:01N 52°13' W 005°46'713.9
2017-Oct-17 14:30N 52°20' W 005°43'815.1
2017-Oct-17 14:00N 52°27' W 005°40'816.1
2017-Oct-17 13:30N 52°35' W 005°37'8512.8
2017-Oct-17 06:50N 53°60' W 005°16'2 6.7
2017-Oct-17 06:31N 54°02' W 005°17'3 6.0
2017-Oct-17 06:01N 54°05' W 005°19'3 5.6
2017-Oct-17 05:30N 54°08' W 005°19'3 5.5
2017-Oct-17 05:01N 54°10' W 005°18'3 5.1
2017-Oct-17 04:30N 54°13' W 005°18'3 5.0
2017-Oct-17 04:00N 54°15' W 005°17'3 5.2
2017-Oct-17 03:30N 54°18' W 005°17'3 5.3
2017-Oct-17 03:01N 54°21' W 005°16'3 5.9
2017-Oct-17 02:31N 54°23' W 005°16'3 5.4
2017-Oct-17 02:01N 54°26' W 005°16'2 4.7
2017-Oct-17 01:30N 54°28' W 005°16'2 4.6
2017-Oct-17 01:00N 54°31' W 005°16'2 4.5
2017-Oct-17 00:30N 54°33' W 005°17'3 6.8
2017-Oct-17 00:01N 54°36' W 005°19'4 7.0
2017-Oct-16 23:30N 54°40' W 005°21'3 6.8
2017-Oct-16 23:01N 54°43' W 005°23'2 4.9
2017-Oct-16 22:30N 54°45' W 005°25'2 3.9
2017-Oct-16 22:01N 54°47' W 005°23'2 4.3
2017-Oct-16 21:30N 54°48' W 005°20'2 4.0
2017-Oct-16 21:01N 54°50' W 005°19'1 2.9
2017-Oct-16 20:30N 54°51' W 005°18'1 2.7
2017-Oct-16 20:01N 54°52' W 005°20'2 3.1
2017-Oct-16 19:31N 54°53' W 005°22'2 3.5
2017-Oct-16 19:01N 54°55' W 005°24'1 2.6
2017-Oct-16 18:30N 54°56' W 005°23'1 2.7
2017-Oct-16 18:01N 54°57' W 005°22'1 2.8
2017-Oct-16 17:31N 54°58' W 005°20'2 3.1
2017-Oct-16 17:00N 54°59' W 005°19'2 4.0
2017-Oct-16 16:30N 55°01' W 005°19'2 5.0
2017-Oct-16 16:00N 55°04' W 005°18'4 7.8
2017-Oct-16 15:30N 55°08' W 005°17'1610.6
2017-Oct-16 13:59N 55°22' W 005°04'611.6
2017-Oct-16 13:27N 55°28' W 004°60'612.8
2017-Oct-16 13:00N 55°33' W 004°60'713.0
2017-Oct-16 12:30N 55°40' W 004°60'714.1
2017-Oct-16 12:00N 55°47' W 004°58'713.0
2017-Oct-16 11:30N 55°53' W 004°56'3 0.1
2017-Oct-15 13:59N 55°56' W 004°54'713.9
2017-Oct-15 13:30N 55°50' W 004°57'611.6
2017-Oct-15 13:00N 55°44' W 004°59'612.2
2017-Oct-15 12:30N 55°38' W 004°59'713.9
2017-Oct-15 12:00N 55°31' W 004°60'713.5
2017-Oct-15 11:30N 55°24' W 005°02'1813.9
2017-Oct-15 10:12N 55°08' W 005°16'314.3
2017-Oct-15 10:00N 55°06' W 005°18'714.9
2017-Oct-15 09:30N 54°58' W 005°19'815.7
2017-Oct-15 09:01N 54°51' W 005°16'815.3
2017-Oct-15 08:31N 54°44' W 005°11'714.7
2017-Oct-15 08:01N 54°36' W 005°09'714.6
2017-Oct-15 07:31N 54°29' W 005°06'714.1
2017-Oct-15 07:00N 54°22' W 005°04'714.1
2017-Oct-15 06:31N 54°15' W 005°02'713.9
2017-Oct-15 06:00N 54°09' W 004°60'4812.2
2017-Oct-15 02:03N 53°39' W 003°55'113.7
2017-Oct-15 01:58N 53°38' W 003°54'613.9
2017-Oct-15 01:30N 53°35' W 003°44'713.8
2017-Oct-15 01:00N 53°33' W 003°33'714.4
2017-Oct-15 00:30N 53°33' W 003°21'611.3
2017-Oct-15 00:00N 53°31' W 003°12'713.3
2017-Oct-14 23:30N 53°28' W 003°03'1 2.0
2017-Oct-14 23:00N 53°27' W 003°01'0 0.6
2017-Oct-14 22:30N 53°27' W 003°01'0 0.6
2017-Oct-14 22:00N 53°28' W 003°01'0 0.0
2017-Oct-14 21:26N 53°28' W 003°01'0 0.0
2017-Oct-14 20:59N 53°28' W 003°01'0 0.0
2017-Oct-14 20:29N 53°28' W 003°01'0 0.0
2017-Oct-14 19:59N 53°28' W 003°01'0 0.0
2017-Oct-14 19:29N 53°28' W 003°01'0 0.0
2017-Oct-14 18:59N 53°28' W 003°01'0 0.0
2017-Oct-14 18:29N 53°28' W 003°01'0 0.0
2017-Oct-14 17:59N 53°28' W 003°01'0 0.0
2017-Oct-14 17:29N 53°28' W 003°01'0 0.0
2017-Oct-14 16:56N 53°28' W 003°01'0 0.0
2017-Oct-14 16:29N 53°28' W 003°01'0 0.0
2017-Oct-14 15:59N 53°28' W 003°01'0 0.0
2017-Oct-14 15:29N 53°28' W 003°01'0 0.0
2017-Oct-14 14:59N 53°28' W 003°01'0 0.0
2017-Oct-14 14:26N 53°28' W 003°01'0 0.0
2017-Oct-14 13:56N 53°28' W 003°01'0 0.0
2017-Oct-14 13:29N 53°28' W 003°01'0 0.0
2017-Oct-14 12:59N 53°28' W 003°01'0 0.0
2017-Oct-14 12:29N 53°28' W 003°01'0 0.0
2017-Oct-14 11:59N 53°28' W 003°01'0 0.0
2017-Oct-14 11:29N 53°28' W 003°01'0 0.0
2017-Oct-14 10:59N 53°28' W 003°01'0 0.0
2017-Oct-14 10:26N 53°28' W 003°01'0 0.0
2017-Oct-14 09:59N 53°28' W 003°01'0 0.0
2017-Oct-14 09:29N 53°28' W 003°01'0 0.0
2017-Oct-14 08:59N 53°28' W 003°01'0 0.0
2017-Oct-14 08:29N 53°28' W 003°01'0 0.0
2017-Oct-14 07:59N 53°28' W 003°01'0 0.0
2017-Oct-14 07:29N 53°28' W 003°01'0 0.0
2017-Oct-14 06:56N 53°28' W 003°01'0 0.0
2017-Oct-14 06:29N 53°28' W 003°01'0 0.0
2017-Oct-14 05:59N 53°28' W 003°01'0 0.0
2017-Oct-14 05:26N 53°28' W 003°01'0 0.0
2017-Oct-14 04:59N 53°28' W 003°01'0 0.0
2017-Oct-14 04:29N 53°28' W 003°01'0 0.0
2017-Oct-14 03:56N 53°28' W 003°01'0 0.0
2017-Oct-14 03:26N 53°28' W 003°01'0 0.0
2017-Oct-14 02:59N 53°28' W 003°01'0 0.0
2017-Oct-14 02:29N 53°28' W 003°01'0 0.0
2017-Oct-14 01:59N 53°28' W 003°01'0 0.0
2017-Oct-14 01:29N 53°28' W 003°01'0 0.0
2017-Oct-14 00:59N 53°28' W 003°01'0 0.0
2017-Oct-14 00:29N 53°28' W 003°01'0 0.0
2017-Oct-14 00:00N 53°28' W 003°01'0 1.0
2017-Oct-13 23:30N 53°27' W 003°01'0 0.2
2017-Oct-13 23:00N 53°27' W 003°01'0 0.4
2017-Oct-13 22:30N 53°27' W 003°01'2 4.0
2017-Oct-13 22:00N 53°28' W 003°04'510.3
2017-Oct-13 21:31N 53°32' W 003°10'611.4
2017-Oct-13 21:01N 53°31' W 003°20'3 6.2
2017-Oct-13 20:30N 53°31' W 003°25'3 6.0
2017-Oct-13 20:00N 53°31' W 003°30'3 6.1
2017-Oct-13 19:30N 53°31' W 003°35'3 6.0
2017-Oct-13 19:00N 53°31' W 003°40'3 6.6
2017-Oct-13 18:30N 53°31' W 003°46'4 8.2
2017-Oct-13 18:00N 53°31' W 003°53'5 9.2
2017-Oct-13 17:30N 53°30' W 004°00'812.9
2017-Oct-13 16:55N 53°30' W 004°13'9515.0
2017-Oct-13 10:37N 52°09' W 005°34'315.1
2017-Oct-13 10:26N 52°06' W 005°36'614.4
2017-Oct-13 09:59N 52°00' W 005°39'1814.2
2017-Oct-13 08:43N 51°43' W 005°49'614.6
2017-Oct-13 08:19N 51°37' W 005°51'514.7
2017-Oct-13 07:59N 51°33' W 005°51'714.6
2017-Oct-13 07:29N 51°25' W 005°51'714.9
2017-Oct-13 06:59N 51°18' W 005°51'715.0
2017-Oct-13 06:30N 51°10' W 005°52'715.1
2017-Oct-13 06:00N 51°03' W 005°52'  
Track history (hours):
 
Tides and Currents Weather Stations Pressure Air Temp Water Temp Dewpoint Dewpoint Depression Visibility Wind Speed Wind Dir Waves Ship Positions

X-preSS Mulhacen

Last reported at 2017-Oct-23 06:00 UTC. Time now 2017-Oct-23 06:25 UTC.
Position N 53°25' W 004°00'.

Length 142 m; draft 7.2 m.

Type: Ship (hazmat cat B). MMSI: 229630000.

Date/timePositionNaut miles runAvg speedWind from/ knotsBaromVisibWave heightAir tempDewpointWater temp
2017-Oct-23 06:00N 53°25' W 004°00'6 1.7
2017-Oct-23 02:21N 53°22' W 004°09'86 3.2
2017-Oct-21 23:54N 52°12' W 005°32'911.6
2017-Oct-21 23:09N 52°04' W 005°36'211.9
2017-Oct-21 23:00N 52°02' W 005°37'3412.3
2017-Oct-21 20:14N 51°31' W 005°58'312.0
2017-Oct-21 20:00N 51°28' W 006°00'26 8.0
2017-Oct-21 16:42N 51°03' W 005°48'3 7.6
2017-Oct-21 16:19N 51°01' W 005°45'3 7.3
2017-Oct-21 15:57N 50°59' W 005°42'3 6.4
2017-Oct-21 15:31N 50°57' W 005°39'3 6.4
2017-Oct-21 15:00N 50°54' W 005°36'7 7.0
2017-Oct-21 14:01N 50°48' W 005°32'611.5
2017-Oct-21 13:31N 50°43' W 005°37'611.3
2017-Oct-21 13:01N 50°38' W 005°41'611.2
2017-Oct-21 12:30N 50°32' W 005°44'610.9
2017-Oct-21 12:00N 50°27' W 005°48'510.8
2017-Oct-21 11:31N 50°22' W 005°51'5 9.9
2017-Oct-21 11:00N 50°17' W 005°52'5 9.7
2017-Oct-21 10:27N 50°12' W 005°53'5 9.6
2017-Oct-21 09:59N 50°08' W 005°54'6 9.3
2017-Oct-21 09:18N 50°01' W 005°55'28 4.3
2017-Oct-21 02:46N 49°54' W 005°13'2 8.2
2017-Oct-21 02:30N 49°54' W 005°09'5 9.0
2017-Oct-21 02:00N 49°54' W 005°02'5 9.7
2017-Oct-21 01:31N 49°55' W 004°55'510.6
2017-Oct-21 01:00N 49°56' W 004°47'611.2
2017-Oct-21 00:30N 49°57' W 004°39'611.5
2017-Oct-21 00:01N 49°59' W 004°30'611.6
2017-Oct-20 23:31N 50°00' W 004°21'611.4
2017-Oct-20 23:01N 50°02' W 004°13'611.4
2017-Oct-20 22:30N 50°03' W 004°04'611.2
2017-Oct-20 22:00N 50°05' W 003°56'510.6
2017-Oct-20 21:30N 50°06' W 003°48'5 9.8
2017-Oct-20 21:00N 50°07' W 003°40'5 9.5
2017-Oct-20 20:31N 50°09' W 003°33'5 9.6
2017-Oct-20 20:01N 50°11' W 003°26'5 9.7
2017-Oct-20 19:30N 50°12' W 003°19'510.0
2017-Oct-20 19:01N 50°14' W 003°12'510.3
2017-Oct-20 18:30N 50°16' W 003°04'510.6
2017-Oct-20 18:01N 50°17' W 002°56'611.1
2017-Oct-20 17:31N 50°19' W 002°48'611.7
2017-Oct-20 17:01N 50°21' W 002°39'612.3
2017-Oct-20 16:31N 50°23' W 002°30'813.0
2017-Oct-20 15:56N 50°26' W 002°19'613.7
2017-Oct-20 15:28N 50°28' W 002°10'714.3
2017-Oct-20 15:00N 50°30' W 001°60'714.6
2017-Oct-20 14:31N 50°34' W 001°50'1414.5
2017-Oct-20 13:30N 50°42' W 001°32'815.1
2017-Oct-20 13:00N 50°46' W 001°21'5 9.4
2017-Oct-20 12:30N 50°50' W 001°19'510.6
2017-Oct-20 12:00N 50°54' W 001°25'2 3.1
2017-Oct-20 11:30N 50°54' W 001°27'0 0.0
2017-Oct-20 10:58N 50°54' W 001°27'0 0.0
2017-Oct-20 10:25N 50°54' W 001°27'0 0.0
2017-Oct-20 09:58N 50°54' W 001°27'0 0.0
2017-Oct-20 09:28N 50°54' W 001°27'0 0.0
2017-Oct-20 08:52N 50°54' W 001°27'0 0.0
2017-Oct-20 08:04N 50°54' W 001°27'0 0.0
2017-Oct-20 07:49N 50°54' W 001°27'0 0.0
2017-Oct-20 07:22N 50°54' W 001°27'0 0.0
2017-Oct-20 06:58N 50°54' W 001°27'0 0.0
2017-Oct-20 06:28N 50°54' W 001°27'0 0.0
2017-Oct-20 05:58N 50°54' W 001°27'0 0.0
2017-Oct-20 05:28N 50°54' W 001°27'0 0.0
2017-Oct-20 04:58N 50°54' W 001°27'0 0.0
2017-Oct-20 04:28N 50°54' W 001°27'0 0.0
2017-Oct-20 03:43N 50°54' W 001°27'0 0.0
2017-Oct-20 03:28N 50°54' W 001°27'0 0.0
2017-Oct-20 02:58N 50°54' W 001°27'0 0.0
2017-Oct-20 02:28N 50°54' W 001°27'0 0.0
2017-Oct-20 01:55N 50°54' W 001°27'0 0.0
2017-Oct-20 01:22N 50°54' W 001°27'0 0.0
2017-Oct-20 00:55N 50°54' W 001°27'0 0.0
2017-Oct-20 00:28N 50°54' W 001°27'0 0.0
2017-Oct-19 23:58N 50°54' W 001°27'0 0.0
2017-Oct-19 23:25N 50°54' W 001°27'0 0.0
2017-Oct-19 22:58N 50°54' W 001°27'0 0.0
2017-Oct-19 22:25N 50°54' W 001°27'0 0.0
2017-Oct-19 21:40N 50°54' W 001°27'0 0.0
2017-Oct-19 21:25N 50°54' W 001°27'0 0.0
2017-Oct-19 20:55N 50°54' W 001°27'0 0.0
2017-Oct-19 19:46N 50°54' W 001°27'0 0.0
2017-Oct-19 19:28N 50°54' W 001°27'0 0.0
2017-Oct-19 18:58N 50°54' W 001°27'0 0.0
2017-Oct-19 18:28N 50°54' W 001°27'0 0.0
2017-Oct-19 17:58N 50°54' W 001°27'0 0.0
2017-Oct-19 17:28N 50°54' W 001°27'0 0.0
2017-Oct-19 16:58N 50°54' W 001°27'0 0.0
2017-Oct-19 16:28N 50°54' W 001°27'0 0.0
2017-Oct-19 15:58N 50°54' W 001°27'0 0.0
2017-Oct-19 15:28N 50°54' W 001°27'0 0.0
2017-Oct-19 14:58N 50°54' W 001°27'0 0.0
2017-Oct-19 14:22N 50°54' W 001°27'0 0.0
2017-Oct-19 13:55N 50°54' W 001°27'0 0.0
2017-Oct-19 13:28N 50°54' W 001°27'0 0.0
2017-Oct-19 12:55N 50°54' W 001°27'0 0.5
2017-Oct-19 12:31N 50°54' W 001°27'3 5.1
2017-Oct-19 12:00N 50°53' W 001°24'5 9.6
2017-Oct-19 11:30N 50°49' W 001°18'4 8.9
2017-Oct-19 11:00N 50°46' W 001°14'4 8.4
2017-Oct-19 10:30N 50°45' W 001°07'510.1
2017-Oct-19 10:00N 50°43' W 001°01'612.2
2017-Oct-19 09:30N 50°37' W 000°58'612.3
2017-Oct-19 09:00N 50°31' W 000°53'611.7
2017-Oct-19 08:30N 50°26' W 000°49'612.1
2017-Oct-19 08:00N 50°21' W 000°45'611.6
2017-Oct-19 07:30N 50°15' W 000°42'611.2
2017-Oct-19 07:00N 50°10' W 000°38'5 9.5
2017-Oct-19 06:30N 50°06' W 000°33'611.6
2017-Oct-19 06:00N 50°01' W 000°29'611.8
2017-Oct-19 05:30N 49°56' W 000°26'612.0
2017-Oct-19 05:00N 49°50' W 000°23'612.4
2017-Oct-19 04:30N 49°45' W 000°17'612.8
2017-Oct-19 04:00N 49°41' W 000°10'612.7
2017-Oct-19 03:30N 49°36' W 000°04'612.0
2017-Oct-19 03:00N 49°31' E 000°01'510.0
2017-Oct-19 02:30N 49°28' E 000°07'2 3.9
2017-Oct-19 02:00N 49°27' E 000°10'0 0.0
2017-Oct-19 01:30N 49°27' E 000°10'0 0.0
2017-Oct-19 01:00N 49°27' E 000°10'0 0.0
2017-Oct-19 00:30N 49°27' E 000°10'0 0.0
2017-Oct-19 00:00N 49°27' E 000°10'0 0.0
2017-Oct-18 23:30N 49°27' E 000°10'0 0.0
2017-Oct-18 23:00N 49°27' E 000°10'0 0.0
2017-Oct-18 22:30N 49°27' E 000°10'0 0.0
2017-Oct-18 22:00N 49°27' E 000°10'0 0.0
2017-Oct-18 21:30N 49°27' E 000°10'0 0.0
2017-Oct-18 21:00N 49°27' E 000°10'0 0.0
2017-Oct-18 20:30N 49°27' E 000°10'0 0.0
2017-Oct-18 20:00N 49°27' E 000°10'0 0.0
2017-Oct-18 19:30N 49°27' E 000°10'0 0.0
2017-Oct-18 19:00N 49°27' E 000°10'1 2.1
2017-Oct-18 18:30N 49°28' E 000°09'510.4
2017-Oct-18 18:01N 49°30' E 000°01'612.0
2017-Oct-18 17:31N 49°31' W 000°08'714.9
2017-Oct-18 17:00N 49°34' W 000°18'816.0
2017-Oct-18 16:30N 49°37' W 000°30'815.5
2017-Oct-18 16:00N 49°39' W 000°41'715.1
2017-Oct-18 15:31N 49°41' W 000°53'714.6
2017-Oct-18 15:00N 49°43' W 001°03'1713.0
2017-Oct-18 13:42N 49°47' W 001°29'4711.5
2017-Oct-18 09:36N 49°50' W 002°42'0 1.5
2017-Oct-18 09:22N 49°50' W 002°42'3 9.4
2017-Oct-18 09:00N 49°49' W 002°47'815.9
2017-Oct-18 08:30N 49°50' W 002°59'816.0
2017-Oct-18 08:00N 49°50' W 003°11'816.0
2017-Oct-18 07:30N 49°50' W 003°24'816.0
2017-Oct-18 07:00N 49°49' W 003°36'815.3
2017-Oct-18 06:30N 49°50' W 003°48'1115.8
2017-Oct-18 05:50N 49°50' W 004°04'915.8
2017-Oct-18 05:15N 49°50' W 004°18'415.6
2017-Oct-18 05:00N 49°50' W 004°25'915.7
2017-Oct-18 04:26N 49°50' W 004°38'715.7
2017-Oct-18 04:00N 49°50' W 004°49'1114.0
2017-Oct-18 03:15N 49°51' W 005°05'313.3
2017-Oct-18 03:00N 49°51' W 005°10'713.8
2017-Oct-18 02:30N 49°52' W 005°21'914.9
2017-Oct-18 01:55N 49°53' W 005°34'1514.4
2017-Oct-18 00:52N 49°55' W 005°58'1813.3
2017-Oct-17 23:33N 50°12' W 006°01'215.2
2017-Oct-17 23:24N 50°15' W 006°01'615.1
2017-Oct-17 23:00N 50°21' W 006°01'1315.4
2017-Oct-17 22:08N 50°34' W 006°01'315.4
2017-Oct-17 21:57N 50°37' W 006°00'1015.4
2017-Oct-17 21:17N 50°47' W 005°60'415.3
2017-Oct-17 21:00N 50°51' W 005°59'815.2
2017-Oct-17 20:29N 50°59' W 005°59'715.2
2017-Oct-17 20:00N 51°06' W 005°58'2214.3
2017-Oct-17 18:27N 51°29' W 005°57'713.5
2017-Oct-17 17:54N 51°36' W 005°57'513.2
2017-Oct-17 17:30N 51°41' W 005°57'713.1
2017-Oct-17 17:00N 51°48' W 005°55'612.8
2017-Oct-17 16:30N 51°54' W 005°53'713.0
2017-Oct-17 16:00N 52°00' W 005°51'612.8
2017-Oct-17 15:30N 52°07' W 005°48'713.4
2017-Oct-17 15:01N 52°13' W 005°46'713.9
2017-Oct-17 14:30N 52°20' W 005°43'815.1
2017-Oct-17 14:00N 52°27' W 005°40'816.1
2017-Oct-17 13:30N 52°35' W 005°37'8512.8
2017-Oct-17 06:50N 53°60' W 005°16'2 6.7
2017-Oct-17 06:31N 54°02' W 005°17'3 6.0
2017-Oct-17 06:01N 54°05' W 005°19'3 5.6
2017-Oct-17 05:30N 54°08' W 005°19'3 5.5
2017-Oct-17 05:01N 54°10' W 005°18'3 5.1
2017-Oct-17 04:30N 54°13' W 005°18'3 5.0
2017-Oct-17 04:00N 54°15' W 005°17'3 5.2
2017-Oct-17 03:30N 54°18' W 005°17'3 5.3
2017-Oct-17 03:01N 54°21' W 005°16'3 5.9
2017-Oct-17 02:31N 54°23' W 005°16'3 5.4
2017-Oct-17 02:01N 54°26' W 005°16'2 4.7
2017-Oct-17 01:30N 54°28' W 005°16'2 4.6
2017-Oct-17 01:00N 54°31' W 005°16'2 4.5
2017-Oct-17 00:30N 54°33' W 005°17'3 6.8
2017-Oct-17 00:01N 54°36' W 005°19'4 7.0
2017-Oct-16 23:30N 54°40' W 005°21'3 6.8
2017-Oct-16 23:01N 54°43' W 005°23'2 4.9
2017-Oct-16 22:30N 54°45' W 005°25'2 3.9
2017-Oct-16 22:01N 54°47' W 005°23'2 4.3
2017-Oct-16 21:30N 54°48' W 005°20'2 4.0
2017-Oct-16 21:01N 54°50' W 005°19'1 2.9
2017-Oct-16 20:30N 54°51' W 005°18'1 2.7
2017-Oct-16 20:01N 54°52' W 005°20'2 3.1
2017-Oct-16 19:31N 54°53' W 005°22'2 3.5
2017-Oct-16 19:01N 54°55' W 005°24'1 2.6
2017-Oct-16 18:30N 54°56' W 005°23'1 2.7
2017-Oct-16 18:01N 54°57' W 005°22'1 2.8
2017-Oct-16 17:31N 54°58' W 005°20'2 3.1
2017-Oct-16 17:00N 54°59' W 005°19'2 4.0
2017-Oct-16 16:30N 55°01' W 005°19'2 5.0
2017-Oct-16 16:00N 55°04' W 005°18'4 7.8
2017-Oct-16 15:30N 55°08' W 005°17'1610.6
2017-Oct-16 13:59N 55°22' W 005°04'611.6
2017-Oct-16 13:27N 55°28' W 004°60'612.8
2017-Oct-16 13:00N 55°33' W 004°60'713.0
2017-Oct-16 12:30N 55°40' W 004°60'714.1
2017-Oct-16 12:00N 55°47' W 004°58'713.0
2017-Oct-16 11:30N 55°53' W 004°56'3 0.1
2017-Oct-15 13:59N 55°56' W 004°54'713.9
2017-Oct-15 13:30N 55°50' W 004°57'611.6
2017-Oct-15 13:00N 55°44' W 004°59'612.2
2017-Oct-15 12:30N 55°38' W 004°59'713.9
2017-Oct-15 12:00N 55°31' W 004°60'713.5
2017-Oct-15 11:30N 55°24' W 005°02'1813.9
2017-Oct-15 10:12N 55°08' W 005°16'314.3
2017-Oct-15 10:00N 55°06' W 005°18'714.9
2017-Oct-15 09:30N 54°58' W 005°19'815.7
2017-Oct-15 09:01N 54°51' W 005°16'815.3
2017-Oct-15 08:31N 54°44' W 005°11'714.7
2017-Oct-15 08:01N 54°36' W 005°09'714.6
2017-Oct-15 07:31N 54°29' W 005°06'714.1
2017-Oct-15 07:00N 54°22' W 005°04'714.1
2017-Oct-15 06:31N 54°15' W 005°02'713.9
2017-Oct-15 06:00N 54°09' W 004°60'4812.2
2017-Oct-15 02:03N 53°39' W 003°55'113.7
2017-Oct-15 01:58N 53°38' W 003°54'613.9
2017-Oct-15 01:30N 53°35' W 003°44'713.8
2017-Oct-15 01:00N 53°33' W 003°33'714.4
2017-Oct-15 00:30N 53°33' W 003°21'611.3
2017-Oct-15 00:00N 53°31' W 003°12'713.3
2017-Oct-14 23:30N 53°28' W 003°03'1 2.0
2017-Oct-14 23:00N 53°27' W 003°01'0 0.6
2017-Oct-14 22:30N 53°27' W 003°01'0 0.6
2017-Oct-14 22:00N 53°28' W 003°01'0 0.0
2017-Oct-14 21:26N 53°28' W 003°01'0 0.0
2017-Oct-14 20:59N 53°28' W 003°01'0 0.0
2017-Oct-14 20:29N 53°28' W 003°01'0 0.0
2017-Oct-14 19:59N 53°28' W 003°01'0 0.0
2017-Oct-14 19:29N 53°28' W 003°01'0 0.0
2017-Oct-14 18:59N 53°28' W 003°01'0 0.0
2017-Oct-14 18:29N 53°28' W 003°01'0 0.0
2017-Oct-14 17:59N 53°28' W 003°01'0 0.0
2017-Oct-14 17:29N 53°28' W 003°01'0 0.0
2017-Oct-14 16:56N 53°28' W 003°01'0 0.0
2017-Oct-14 16:29N 53°28' W 003°01'0 0.0
2017-Oct-14 15:59N 53°28' W 003°01'0 0.0
2017-Oct-14 15:29N 53°28' W 003°01'0 0.0
2017-Oct-14 14:59N 53°28' W 003°01'0 0.0
2017-Oct-14 14:26N 53°28' W 003°01'0 0.0
2017-Oct-14 13:56N 53°28' W 003°01'0 0.0
2017-Oct-14 13:29N 53°28' W 003°01'0 0.0
2017-Oct-14 12:59N 53°28' W 003°01'0 0.0
2017-Oct-14 12:29N 53°28' W 003°01'0 0.0
2017-Oct-14 11:59N 53°28' W 003°01'0 0.0
2017-Oct-14 11:29N 53°28' W 003°01'0 0.0
2017-Oct-14 10:59N 53°28' W 003°01'0 0.0
2017-Oct-14 10:26N 53°28' W 003°01'0 0.0
2017-Oct-14 09:59N 53°28' W 003°01'0 0.0
2017-Oct-14 09:29N 53°28' W 003°01'0 0.0
2017-Oct-14 08:59N 53°28' W 003°01'0 0.0
2017-Oct-14 08:29N 53°28' W 003°01'0 0.0
2017-Oct-14 07:59N 53°28' W 003°01'0 0.0
2017-Oct-14 07:29N 53°28' W 003°01'0 0.0
2017-Oct-14 06:56N 53°28' W 003°01'0 0.0
2017-Oct-14 06:29N 53°28' W 003°01'0 0.0
2017-Oct-14 05:59N 53°28' W 003°01'0 0.0
2017-Oct-14 05:26N 53°28' W 003°01'0 0.0
2017-Oct-14 04:59N 53°28' W 003°01'0 0.0
2017-Oct-14 04:29N 53°28' W 003°01'0 0.0
2017-Oct-14 03:56N 53°28' W 003°01'0 0.0
2017-Oct-14 03:26N 53°28' W 003°01'0 0.0
2017-Oct-14 02:59N 53°28' W 003°01'0 0.0
2017-Oct-14 02:29N 53°28' W 003°01'0 0.0
2017-Oct-14 01:59N 53°28' W 003°01'0 0.0
2017-Oct-14 01:29N 53°28' W 003°01'0 0.0
2017-Oct-14 00:59N 53°28' W 003°01'0 0.0
2017-Oct-14 00:29N 53°28' W 003°01'0 0.0
2017-Oct-14 00:00N 53°28' W 003°01'0 1.0
2017-Oct-13 23:30N 53°27' W 003°01'0 0.2
2017-Oct-13 23:00N 53°27' W 003°01'0 0.4
2017-Oct-13 22:30N 53°27' W 003°01'2 4.0
2017-Oct-13 22:00N 53°28' W 003°04'510.3
2017-Oct-13 21:31N 53°32' W 003°10'611.4
2017-Oct-13 21:01N 53°31' W 003°20'3 6.2
2017-Oct-13 20:30N 53°31' W 003°25'3 6.0
2017-Oct-13 20:00N 53°31' W 003°30'3 6.1
2017-Oct-13 19:30N 53°31' W 003°35'3 6.0
2017-Oct-13 19:00N 53°31' W 003°40'3 6.6
2017-Oct-13 18:30N 53°31' W 003°46'4 8.2
2017-Oct-13 18:00N 53°31' W 003°53'5 9.2
2017-Oct-13 17:30N 53°30' W 004°00'812.9
2017-Oct-13 16:55N 53°30' W 004°13'9515.0
2017-Oct-13 10:37N 52°09' W 005°34'315.1
2017-Oct-13 10:26N 52°06' W 005°36'614.4
2017-Oct-13 09:59N 52°00' W 005°39'1814.2
2017-Oct-13 08:43N 51°43' W 005°49'614.6
2017-Oct-13 08:19N 51°37' W 005°51'514.7
2017-Oct-13 07:59N 51°33' W 005°51'714.6
2017-Oct-13 07:29N 51°25' W 005°51'714.9
2017-Oct-13 06:59N 51°18' W 005°51'715.0
2017-Oct-13 06:30N 51°10' W 005°52'715.1
2017-Oct-13 06:00N 51°03' W 005°52'  

Dump ship's entire track history